Řízení letového provozu České republiky  
Aktualizace dat:  10.05.2021 04:00:31 UTC English version
   METEO Zobrazení stránky:  10.05.2021 04:01:54 UTC  
vysvětlivky
METAR EDDB 100350Z 12005KT CAVOK 14/06 Q1007 NOSIG=
METAR EDDC 100350Z 16015KT CAVOK 15/04 Q1007 TEMPO 16015G25KT=
METAR EDDE 100350Z 19010KT CAVOK 16/07 Q1005 NOSIG=
METAR EDDF 100350Z VRB01KT CAVOK 14/10 Q1003 NOSIG=
METAR EDDM 100350Z VRB02KT CAVOK 08/06 Q1008 NOSIG=
METAR EDDN 100350Z 10008KT CAVOK 13/06 Q1007=
METAR EDDP 100350Z 15008KT CAVOK 13/09 Q1005 NOSIG=
METAR EDQM NIL
METAR EPBY 100330Z 16008KT CAVOK 11/06 Q1012=
METAR EPGD 100330Z 15008KT CAVOK 11/06 Q1012=
METAR EPKK 100330Z 05005KT CAVOK 06/03 Q1015=
METAR EPKT 100330Z 12008KT CAVOK 08/03 Q1014=
METAR EPLL 100330Z 11005KT 080V150 CAVOK 09/05 Q1014=
METAR EPPO 100330Z 13009KT CAVOK 11/05 Q1011=
METAR EPRZ 100330Z 09008KT CAVOK 08/02 Q1018=
METAR EPWA 100330Z 13007KT CAVOK 08/04 Q1016 NOSIG=
METAR EPWR 100330Z 12004KT CAVOK 09/04 Q1011=
METAR LHBP 100330Z 10006KT CAVOK 08/03 Q1019 NOSIG=
METAR LHSM 100315Z AUTO 11005KT CAVOK 10/03 Q1016=
METAR LKBC 100400Z AUTO 08005KT CAVOK 10/05 Q1010=
METAR LKCV 100400Z 13009KT CAVOK 13/02 Q1010 NOSIG RMK BLU BLU=
METAR LKKB 100400Z 07006KT CAVOK 11/04 Q1010 NOSIG RMK BLU BLU=
METAR LKKU NIL
METAR LKKV 100400Z 04003KT CAVOK 09/04 Q1009 RMK REG QNH 1007=
METAR LKLN 100400Z AUTO VRB02KT CAVOK 10/08 Q1009=
METAR LKMT 100400Z 18004KT 150V230 CAVOK 15/00 Q1013 NOSIG RMK REG QNH 1007=
METAR LKNA 100400Z 12012KT CAVOK 11/M00 Q1012 NOSIG RMK BLU BLU=
METAR LKPD 100400Z 10009KT CAVOK 12/02 Q1010 RMK BLACK=
METAR LKPJ 100400Z AUTO 15007KT CAVOK 11/03 Q1013=
METAR LKPR 100400Z 10003KT CAVOK 10/05 Q1009 NOSIG RMK REG QNH 1007=
METAR LKTB 100400Z 10010KT 080V140 CAVOK 12/01 Q1013 NOSIG RMK REG QNH 1007=
METAR LKVO NIL
METAR LOWI 100350Z VRB05KT 9999 FEW060 19/06 Q1013 WS R08 NOSIG=
METAR LOWL 100350Z 29002KT CAVOK 09/07 Q1010 NOSIG=
METAR LOWS 100350Z 16012KT CAVOK 14/04 Q1009 NOSIG=
METAR LOWW 100350Z 15017KT CAVOK 13/02 Q1012 NOSIG=
METAR LZIB 100330Z 05008KT CAVOK 10/03 Q1015=
METAR LZKZ 100330Z VRB01KT CAVOK 05/02 Q1020=
METAR LZMC 100300Z 15012G24KT CAVOK 13/01 Q1014=
METAR LZPP 100330Z AUTO 12016KT 9999 NCD 14/02 Q1015=
METAR LZSL 100300Z 10002KT CAVOK 06/02 Q1020=
METAR LZTT 100330Z 19007KT CAVOK 09/M01 Q1019=
METAR LZZI 100330Z VRB02KT CAVOK 04/03 Q1017=